sensor_id;sensor_type;location;lat;lon;timestamp;temperature;humidity
24518;DHT22;12678;51.336;12.406;2022-12-07T00:01:35;4.30;99.90
24518;DHT22;12678;51.336;12.406;2022-12-07T00:04:02;4.20;99.90
24518;DHT22;12678;51.336;12.406;2022-12-07T00:06:41;4.20;99.90
24518;DHT22;12678;51.336;12.406;2022-12-07T00:09:11;4.20;99.90
24518;DHT22;12678;51.336;12.406;2022-12-07T00:11:37;4.20;99.90
24518;DHT22;12678;51.336;12.406;2022-12-07T00:14:06;4.20;99.90
24518;DHT22;12678;51.336;12.406;2022-12-07T00:16:34;4.20;99.90
24518;DHT22;12678;51.336;12.406;2022-12-07T00:19:00;4.20;99.90
24518;DHT22;12678;51.336;12.406;2022-12-07T00:21:28;4.20;99.90
24518;DHT22;12678;51.336;12.406;2022-12-07T00:23:55;4.10;99.90
24518;DHT22;12678;51.336;12.406;2022-12-07T00:26:26;4.10;99.90
24518;DHT22;12678;51.336;12.406;2022-12-07T00:28:54;4.00;99.90
24518;DHT22;12678;51.336;12.406;2022-12-07T00:31:21;4.10;99.90
24518;DHT22;12678;51.336;12.406;2022-12-07T00:33:48;4.00;99.90
24518;DHT22;12678;51.336;12.406;2022-12-07T00:36:19;3.90;99.90
24518;DHT22;12678;51.336;12.406;2022-12-07T00:38:45;3.90;99.90
24518;DHT22;12678;51.336;12.406;2022-12-07T00:41:13;3.90;99.90
24518;DHT22;12678;51.336;12.406;2022-12-07T00:43:41;3.90;99.90
24518;DHT22;12678;51.336;12.406;2022-12-07T00:46:07;3.90;99.90
24518;DHT22;12678;51.336;12.406;2022-12-07T00:48:33;3.80;99.90
24518;DHT22;12678;51.336;12.406;2022-12-07T00:50:59;3.80;99.90
24518;DHT22;12678;51.336;12.406;2022-12-07T00:53:24;3.80;99.90
24518;DHT22;12678;51.336;12.406;2022-12-07T00:55:50;3.80;99.90
24518;DHT22;12678;51.336;12.406;2022-12-07T00:58:18;3.80;99.90
24518;DHT22;12678;51.336;12.406;2022-12-07T01:00:44;3.70;99.90
24518;DHT22;12678;51.336;12.406;2022-12-07T01:03:12;3.70;99.90
24518;DHT22;12678;51.336;12.406;2022-12-07T01:05:39;3.70;99.90
24518;DHT22;12678;51.336;12.406;2022-12-07T01:08:05;3.70;99.90
24518;DHT22;12678;51.336;12.406;2022-12-07T01:10:31;3.50;99.90
24518;DHT22;12678;51.336;12.406;2022-12-07T01:12:58;3.50;99.90
24518;DHT22;12678;51.336;12.406;2022-12-07T01:15:24;3.40;99.90
24518;DHT22;12678;51.336;12.406;2022-12-07T01:17:50;3.40;99.90
24518;DHT22;12678;51.336;12.406;2022-12-07T01:20:16;3.30;99.90
24518;DHT22;12678;51.336;12.406;2022-12-07T01:22:43;3.30;99.90
24518;DHT22;12678;51.336;12.406;2022-12-07T01:25:10;3.20;99.90
24518;DHT22;12678;51.336;12.406;2022-12-07T01:27:36;3.20;99.90
24518;DHT22;12678;51.336;12.406;2022-12-07T01:30:05;3.10;99.90
24518;DHT22;12678;51.336;12.406;2022-12-07T01:32:32;3.10;99.90
24518;DHT22;12678;51.336;12.406;2022-12-07T01:34:57;3.10;99.90
24518;DHT22;12678;51.336;12.406;2022-12-07T01:37:23;3.10;99.90
24518;DHT22;12678;51.336;12.406;2022-12-07T01:39:50;3.10;99.90
24518;DHT22;12678;51.336;12.406;2022-12-07T01:42:16;3.00;99.90
24518;DHT22;12678;51.336;12.406;2022-12-07T01:47:42;3.00;99.90
24518;DHT22;12678;51.336;12.406;2022-12-07T01:50:09;3.00;99.90
24518;DHT22;12678;51.336;12.406;2022-12-07T01:52:36;2.90;99.90
24518;DHT22;12678;51.336;12.406;2022-12-07T01:55:08;2.80;99.90
24518;DHT22;12678;51.336;12.406;2022-12-07T01:57:38;2.80;99.90
24518;DHT22;12678;51.336;12.406;2022-12-07T02:00:07;2.70;99.90
24518;DHT22;12678;51.336;12.406;2022-12-07T02:02:35;2.70;99.90
24518;DHT22;12678;51.336;12.406;2022-12-07T02:05:04;2.70;99.90
24518;DHT22;12678;51.336;12.406;2022-12-07T02:07:32;2.60;99.90
24518;DHT22;12678;51.336;12.406;2022-12-07T02:10:26;2.70;99.90
24518;DHT22;12678;51.336;12.406;2022-12-07T02:13:20;2.60;99.90
24518;DHT22;12678;51.336;12.406;2022-12-07T02:16:17;2.60;99.90
24518;DHT22;12678;51.336;12.406;2022-12-07T02:24:16;2.60;99.90
24518;DHT22;12678;51.336;12.406;2022-12-07T02:27:17;2.60;99.90
24518;DHT22;12678;51.336;12.406;2022-12-07T02:38:35;2.60;99.90
24518;DHT22;12678;51.336;12.406;2022-12-07T02:44:06;2.60;99.90
24518;DHT22;12678;51.336;12.406;2022-12-07T02:46:42;2.70;99.90
24518;DHT22;12678;51.336;12.406;2022-12-07T02:49:08;2.50;99.90
24518;DHT22;12678;51.336;12.406;2022-12-07T02:51:40;2.60;99.90
24518;DHT22;12678;51.336;12.406;2022-12-07T02:54:15;2.60;99.90
24518;DHT22;12678;51.336;12.406;2022-12-07T03:07:18;2.50;99.90
24518;DHT22;12678;51.336;12.406;2022-12-07T03:12:29;2.60;99.90
24518;DHT22;12678;51.336;12.406;2022-12-07T03:15:07;2.60;99.90
24518;DHT22;12678;51.336;12.406;2022-12-07T03:17:37;2.60;99.90
24518;DHT22;12678;51.336;12.406;2022-12-07T03:20:06;2.70;99.90
24518;DHT22;12678;51.336;12.406;2022-12-07T03:22:34;2.70;99.90
24518;DHT22;12678;51.336;12.406;2022-12-07T03:25:05;2.70;99.90
24518;DHT22;12678;51.336;12.406;2022-12-07T03:27:41;2.60;99.90
24518;DHT22;12678;51.336;12.406;2022-12-07T03:30:15;2.70;99.90
24518;DHT22;12678;51.336;12.406;2022-12-07T03:32:45;2.70;99.90
24518;DHT22;12678;51.336;12.406;2022-12-07T03:37:48;2.70;99.90
24518;DHT22;12678;51.336;12.406;2022-12-07T03:40:32;2.70;99.90
24518;DHT22;12678;51.336;12.406;2022-12-07T03:43:03;2.80;99.90
24518;DHT22;12678;51.336;12.406;2022-12-07T03:48:52;2.80;99.90
24518;DHT22;12678;51.336;12.406;2022-12-07T03:51:46;2.90;99.90
24518;DHT22;12678;51.336;12.406;2022-12-07T03:54:23;2.90;99.90
24518;DHT22;12678;51.336;12.406;2022-12-07T03:56:50;2.90;99.90
24518;DHT22;12678;51.336;12.406;2022-12-07T03:59:17;2.90;99.90
24518;DHT22;12678;51.336;12.406;2022-12-07T04:01:45;3.00;99.90
24518;DHT22;12678;51.336;12.406;2022-12-07T04:04:17;2.90;99.90
24518;DHT22;12678;51.336;12.406;2022-12-07T04:06:43;3.00;99.90
24518;DHT22;12678;51.336;12.406;2022-12-07T04:09:08;3.00;99.90
24518;DHT22;12678;51.336;12.406;2022-12-07T04:11:34;2.90;99.90
24518;DHT22;12678;51.336;12.406;2022-12-07T04:14:00;3.00;99.90
24518;DHT22;12678;51.336;12.406;2022-12-07T04:16:52;3.10;99.90
24518;DHT22;12678;51.336;12.406;2022-12-07T04:19:20;3.00;99.90
24518;DHT22;12678;51.336;12.406;2022-12-07T04:21:46;3.10;99.90
24518;DHT22;12678;51.336;12.406;2022-12-07T04:24:13;3.10;99.90
24518;DHT22;12678;51.336;12.406;2022-12-07T04:26:39;3.10;99.90
24518;DHT22;12678;51.336;12.406;2022-12-07T04:29:04;3.20;99.90
24518;DHT22;12678;51.336;12.406;2022-12-07T04:31:30;3.20;99.90
24518;DHT22;12678;51.336;12.406;2022-12-07T04:33:55;3.20;99.90
24518;DHT22;12678;51.336;12.406;2022-12-07T04:36:21;3.20;99.90
24518;DHT22;12678;51.336;12.406;2022-12-07T04:38:47;3.20;99.90
24518;DHT22;12678;51.336;12.406;2022-12-07T04:41:13;3.30;99.90
24518;DHT22;12678;51.336;12.406;2022-12-07T04:43:38;3.20;99.90
24518;DHT22;12678;51.336;12.406;2022-12-07T04:46:04;3.30;99.90
24518;DHT22;12678;51.336;12.406;2022-12-07T04:48:30;3.20;99.90
24518;DHT22;12678;51.336;12.406;2022-12-07T04:50:56;3.20;99.90
24518;DHT22;12678;51.336;12.406;2022-12-07T04:53:22;3.20;99.90
24518;DHT22;12678;51.336;12.406;2022-12-07T04:55:48;3.20;99.90
24518;DHT22;12678;51.336;12.406;2022-12-07T04:58:15;3.10;99.90
24518;DHT22;12678;51.336;12.406;2022-12-07T05:00:40;3.10;99.90
24518;DHT22;12678;51.336;12.406;2022-12-07T05:03:06;3.10;99.90
24518;DHT22;12678;51.336;12.406;2022-12-07T05:05:32;3.10;99.90
24518;DHT22;12678;51.336;12.406;2022-12-07T05:07:57;3.10;99.90
24518;DHT22;12678;51.336;12.406;2022-12-07T05:10:23;3.10;99.90
24518;DHT22;12678;51.336;12.406;2022-12-07T05:12:49;3.10;99.90
24518;DHT22;12678;51.336;12.406;2022-12-07T05:15:15;3.20;99.90
24518;DHT22;12678;51.336;12.406;2022-12-07T05:17:40;3.30;99.90
24518;DHT22;12678;51.336;12.406;2022-12-07T05:20:06;3.30;99.90
24518;DHT22;12678;51.336;12.406;2022-12-07T05:22:32;3.40;99.90
24518;DHT22;12678;51.336;12.406;2022-12-07T05:24:58;3.40;99.90
24518;DHT22;12678;51.336;12.406;2022-12-07T05:27:23;3.40;99.90
24518;DHT22;12678;51.336;12.406;2022-12-07T05:29:52;3.50;99.90
24518;DHT22;12678;51.336;12.406;2022-12-07T05:32:17;3.50;99.90
24518;DHT22;12678;51.336;12.406;2022-12-07T05:34:43;3.50;99.90
24518;DHT22;12678;51.336;12.406;2022-12-07T05:37:09;3.50;99.90
24518;DHT22;12678;51.336;12.406;2022-12-07T05:39:35;3.50;99.90
24518;DHT22;12678;51.336;12.406;2022-12-07T05:42:03;3.60;99.90
24518;DHT22;12678;51.336;12.406;2022-12-07T05:44:41;3.60;99.90
24518;DHT22;12678;51.336;12.406;2022-12-07T05:47:07;3.60;99.90
24518;DHT22;12678;51.336;12.406;2022-12-07T05:49:33;3.60;99.90
24518;DHT22;12678;51.336;12.406;2022-12-07T05:51:58;3.70;99.90
24518;DHT22;12678;51.336;12.406;2022-12-07T05:54:24;3.70;99.90
24518;DHT22;12678;51.336;12.406;2022-12-07T05:56:50;3.70;99.90
24518;DHT22;12678;51.336;12.406;2022-12-07T05:59:16;3.70;99.90
24518;DHT22;12678;51.336;12.406;2022-12-07T06:01:48;3.70;99.90
24518;DHT22;12678;51.336;12.406;2022-12-07T06:04:14;3.70;99.90
24518;DHT22;12678;51.336;12.406;2022-12-07T06:06:40;3.70;99.90
24518;DHT22;12678;51.336;12.406;2022-12-07T06:09:06;3.60;99.90
24518;DHT22;12678;51.336;12.406;2022-12-07T06:11:32;3.60;99.90
24518;DHT22;12678;51.336;12.406;2022-12-07T06:14:17;3.60;99.90
24518;DHT22;12678;51.336;12.406;2022-12-07T06:16:42;3.60;99.90
24518;DHT22;12678;51.336;12.406;2022-12-07T06:19:08;3.70;99.90
24518;DHT22;12678;51.336;12.406;2022-12-07T06:21:34;3.60;99.90
24518;DHT22;12678;51.336;12.406;2022-12-07T06:23:59;3.70;99.90
24518;DHT22;12678;51.336;12.406;2022-12-07T06:26:25;3.70;99.90
24518;DHT22;12678;51.336;12.406;2022-12-07T06:28:51;3.80;99.90
24518;DHT22;12678;51.336;12.406;2022-12-07T06:31:16;3.70;99.90
24518;DHT22;12678;51.336;12.406;2022-12-07T06:33:42;3.80;99.90
24518;DHT22;12678;51.336;12.406;2022-12-07T06:36:09;3.80;99.90
24518;DHT22;12678;51.336;12.406;2022-12-07T06:38:35;3.80;99.90
24518;DHT22;12678;51.336;12.406;2022-12-07T06:41:00;3.70;99.90
24518;DHT22;12678;51.336;12.406;2022-12-07T06:43:26;3.70;99.90
24518;DHT22;12678;51.336;12.406;2022-12-07T06:45:52;3.70;99.90
24518;DHT22;12678;51.336;12.406;2022-12-07T06:48:18;3.60;99.90
24518;DHT22;12678;51.336;12.406;2022-12-07T06:50:45;3.60;99.90
24518;DHT22;12678;51.336;12.406;2022-12-07T06:53:11;3.60;99.90
24518;DHT22;12678;51.336;12.406;2022-12-07T06:55:36;3.60;99.90
24518;DHT22;12678;51.336;12.406;2022-12-07T06:58:02;3.60;99.90
24518;DHT22;12678;51.336;12.406;2022-12-07T07:00:28;3.60;99.90
24518;DHT22;12678;51.336;12.406;2022-12-07T07:02:54;3.60;99.90
24518;DHT22;12678;51.336;12.406;2022-12-07T07:05:20;3.70;99.90
24518;DHT22;12678;51.336;12.406;2022-12-07T07:07:49;3.80;99.90
24518;DHT22;12678;51.336;12.406;2022-12-07T07:10:15;3.80;99.90
24518;DHT22;12678;51.336;12.406;2022-12-07T07:12:40;3.80;99.90
24518;DHT22;12678;51.336;12.406;2022-12-07T07:15:06;3.80;99.90
24518;DHT22;12678;51.336;12.406;2022-12-07T07:17:32;3.80;99.90
24518;DHT22;12678;51.336;12.406;2022-12-07T07:19:59;3.90;99.90
24518;DHT22;12678;51.336;12.406;2022-12-07T07:22:24;3.90;99.90
24518;DHT22;12678;51.336;12.406;2022-12-07T07:24:50;4.00;99.90
24518;DHT22;12678;51.336;12.406;2022-12-07T07:27:16;4.00;99.90
24518;DHT22;12678;51.336;12.406;2022-12-07T07:29:42;4.00;99.90
24518;DHT22;12678;51.336;12.406;2022-12-07T07:32:07;4.00;99.90
24518;DHT22;12678;51.336;12.406;2022-12-07T07:34:33;4.10;99.90
24518;DHT22;12678;51.336;12.406;2022-12-07T07:36:59;4.00;99.90
24518;DHT22;12678;51.336;12.406;2022-12-07T07:39:24;4.00;99.90
24518;DHT22;12678;51.336;12.406;2022-12-07T07:41:50;4.10;99.90
24518;DHT22;12678;51.336;12.406;2022-12-07T07:44:16;4.10;99.90
24518;DHT22;12678;51.336;12.406;2022-12-07T07:46:41;4.20;99.90
24518;DHT22;12678;51.336;12.406;2022-12-07T07:49:09;4.20;99.90
24518;DHT22;12678;51.336;12.406;2022-12-07T07:51:36;4.20;99.90
24518;DHT22;12678;51.336;12.406;2022-12-07T07:54:01;4.20;99.90
24518;DHT22;12678;51.336;12.406;2022-12-07T07:56:27;4.20;99.90
24518;DHT22;12678;51.336;12.406;2022-12-07T07:58:53;4.20;99.90
24518;DHT22;12678;51.336;12.406;2022-12-07T08:01:19;4.20;99.90
24518;DHT22;12678;51.336;12.406;2022-12-07T08:03:47;4.20;99.90
24518;DHT22;12678;51.336;12.406;2022-12-07T08:06:14;4.20;99.90
24518;DHT22;12678;51.336;12.406;2022-12-07T08:08:39;4.20;99.90
24518;DHT22;12678;51.336;12.406;2022-12-07T08:11:06;4.20;99.90
24518;DHT22;12678;51.336;12.406;2022-12-07T08:13:31;4.10;99.90
24518;DHT22;12678;51.336;12.406;2022-12-07T08:15:57;4.10;99.90
24518;DHT22;12678;51.336;12.406;2022-12-07T08:18:23;4.10;99.90
24518;DHT22;12678;51.336;12.406;2022-12-07T08:20:49;4.10;99.90
24518;DHT22;12678;51.336;12.406;2022-12-07T08:23:14;4.10;99.90
24518;DHT22;12678;51.336;12.406;2022-12-07T08:25:40;4.10;99.90
24518;DHT22;12678;51.336;12.406;2022-12-07T08:28:06;4.20;99.90
24518;DHT22;12678;51.336;12.406;2022-12-07T08:30:32;4.20;99.90
24518;DHT22;12678;51.336;12.406;2022-12-07T08:32:58;4.20;99.90
24518;DHT22;12678;51.336;12.406;2022-12-07T08:35:25;4.30;99.90
24518;DHT22;12678;51.336;12.406;2022-12-07T08:37:51;4.40;99.90
24518;DHT22;12678;51.336;12.406;2022-12-07T08:40:17;4.40;99.90
24518;DHT22;12678;51.336;12.406;2022-12-07T08:42:48;4.50;99.90
24518;DHT22;12678;51.336;12.406;2022-12-07T08:45:15;4.70;99.90
24518;DHT22;12678;51.336;12.406;2022-12-07T08:48:03;4.70;99.90
24518;DHT22;12678;51.336;12.406;2022-12-07T08:50:32;4.90;99.90
24518;DHT22;12678;51.336;12.406;2022-12-07T08:52:59;4.90;99.90
24518;DHT22;12678;51.336;12.406;2022-12-07T08:55:25;4.90;99.90
24518;DHT22;12678;51.336;12.406;2022-12-07T08:57:52;4.90;99.90
24518;DHT22;12678;51.336;12.406;2022-12-07T09:00:18;5.00;99.90
24518;DHT22;12678;51.336;12.406;2022-12-07T09:02:45;5.00;99.90
24518;DHT22;12678;51.336;12.406;2022-12-07T09:05:11;5.10;99.90
24518;DHT22;12678;51.336;12.406;2022-12-07T09:07:37;5.10;99.90
24518;DHT22;12678;51.336;12.406;2022-12-07T09:10:05;5.10;99.90
24518;DHT22;12678;51.336;12.406;2022-12-07T09:12:30;5.20;99.90
24518;DHT22;12678;51.336;12.406;2022-12-07T09:14:56;5.30;99.90
24518;DHT22;12678;51.336;12.406;2022-12-07T09:17:21;5.30;99.90
24518;DHT22;12678;51.336;12.406;2022-12-07T09:19:48;5.50;99.90
24518;DHT22;12678;51.336;12.406;2022-12-07T09:22:14;5.50;99.90
24518;DHT22;12678;51.336;12.406;2022-12-07T09:24:39;5.50;99.90
24518;DHT22;12678;51.336;12.406;2022-12-07T09:27:05;5.60;99.90
24518;DHT22;12678;51.336;12.406;2022-12-07T09:29:31;5.60;99.90
24518;DHT22;12678;51.336;12.406;2022-12-07T09:31:57;5.60;99.90
24518;DHT22;12678;51.336;12.406;2022-12-07T09:34:23;5.60;99.90
24518;DHT22;12678;51.336;12.406;2022-12-07T09:36:48;5.60;99.90
24518;DHT22;12678;51.336;12.406;2022-12-07T09:39:14;5.60;99.90
24518;DHT22;12678;51.336;12.406;2022-12-07T09:41:42;5.60;99.90
24518;DHT22;12678;51.336;12.406;2022-12-07T09:44:13;5.60;99.90
24518;DHT22;12678;51.336;12.406;2022-12-07T09:46:42;5.50;99.90
24518;DHT22;12678;51.336;12.406;2022-12-07T09:49:17;5.50;99.90
24518;DHT22;12678;51.336;12.406;2022-12-07T09:51:44;5.40;99.90
24518;DHT22;12678;51.336;12.406;2022-12-07T09:54:13;5.40;99.90
24518;DHT22;12678;51.336;12.406;2022-12-07T09:56:39;5.40;99.90
24518;DHT22;12678;51.336;12.406;2022-12-07T09:59:05;5.40;99.90
24518;DHT22;12678;51.336;12.406;2022-12-07T10:01:32;5.30;99.90
24518;DHT22;12678;51.336;12.406;2022-12-07T10:06:35;5.40;99.90
24518;DHT22;12678;51.336;12.406;2022-12-07T10:09:01;5.40;99.90
24518;DHT22;12678;51.336;12.406;2022-12-07T10:11:27;5.30;99.90
24518;DHT22;12678;51.336;12.406;2022-12-07T10:13:53;5.40;99.90
24518;DHT22;12678;51.336;12.406;2022-12-07T10:18:54;5.50;99.90
24518;DHT22;12678;51.336;12.406;2022-12-07T10:21:26;5.60;99.90
24518;DHT22;12678;51.336;12.406;2022-12-07T10:24:05;5.70;99.90
24518;DHT22;12678;51.336;12.406;2022-12-07T10:26:51;5.80;99.90
24518;DHT22;12678;51.336;12.406;2022-12-07T10:29:36;5.90;99.90
24518;DHT22;12678;51.336;12.406;2022-12-07T10:34:40;6.00;99.90
24518;DHT22;12678;51.336;12.406;2022-12-07T10:39:45;6.10;99.90
24518;DHT22;12678;51.336;12.406;2022-12-07T10:44:46;6.20;99.90
24518;DHT22;12678;51.336;12.406;2022-12-07T10:50:12;6.20;99.90
24518;DHT22;12678;51.336;12.406;2022-12-07T10:55:36;6.20;99.90
24518;DHT22;12678;51.336;12.406;2022-12-07T11:04:03;6.20;99.90
24518;DHT22;12678;51.336;12.406;2022-12-07T11:09:36;6.20;99.90
24518;DHT22;12678;51.336;12.406;2022-12-07T11:12:22;6.20;99.90
24518;DHT22;12678;51.336;12.406;2022-12-07T11:15:17;6.20;99.90
24518;DHT22;12678;51.336;12.406;2022-12-07T11:18:06;6.10;99.90
24518;DHT22;12678;51.336;12.406;2022-12-07T11:23:16;6.00;99.90
24518;DHT22;12678;51.336;12.406;2022-12-07T11:34:39;5.80;99.90
24518;DHT22;12678;51.336;12.406;2022-12-07T11:37:14;5.70;99.90
24518;DHT22;12678;51.336;12.406;2022-12-07T11:39:54;5.70;99.90
24518;DHT22;12678;51.336;12.406;2022-12-07T11:42:40;5.70;99.90
24518;DHT22;12678;51.336;12.406;2022-12-07T11:47:42;5.70;99.90
24518;DHT22;12678;51.336;12.406;2022-12-07T11:52:48;5.70;99.90
24518;DHT22;12678;51.336;12.406;2022-12-07T11:55:49;5.60;99.90
24518;DHT22;12678;51.336;12.406;2022-12-07T12:06:32;5.90;99.90
24518;DHT22;12678;51.336;12.406;2022-12-07T12:09:17;5.90;99.90
24518;DHT22;12678;51.336;12.406;2022-12-07T12:17:15;6.20;99.90
24518;DHT22;12678;51.336;12.406;2022-12-07T12:22:33;6.20;99.90
24518;DHT22;12678;51.336;12.406;2022-12-07T12:25:00;6.20;99.90
24518;DHT22;12678;51.336;12.406;2022-12-07T12:27:34;6.20;99.90
24518;DHT22;12678;51.336;12.406;2022-12-07T12:30:07;6.20;99.90
24518;DHT22;12678;51.336;12.406;2022-12-07T12:32:48;6.20;99.90
24518;DHT22;12678;51.336;12.406;2022-12-07T12:35:36;6.20;99.90
24518;DHT22;12678;51.336;12.406;2022-12-07T12:38:34;6.30;99.90
24518;DHT22;12678;51.336;12.406;2022-12-07T12:46:56;6.30;99.90
24518;DHT22;12678;51.336;12.406;2022-12-07T12:54:36;6.40;99.90
24518;DHT22;12678;51.336;12.406;2022-12-07T13:00:00;6.60;99.90
24518;DHT22;12678;51.336;12.406;2022-12-07T13:04:57;6.50;99.90
24518;DHT22;12678;51.336;12.406;2022-12-07T13:12:59;6.50;99.90
24518;DHT22;12678;51.336;12.406;2022-12-07T13:23:29;6.40;99.90
24518;DHT22;12678;51.336;12.406;2022-12-07T13:29:09;6.50;99.90
24518;DHT22;12678;51.336;12.406;2022-12-07T13:31:48;6.60;99.90
24518;DHT22;12678;51.336;12.406;2022-12-07T13:37:43;6.60;99.90
24518;DHT22;12678;51.336;12.406;2022-12-07T13:39:47;6.60;99.90
24518;DHT22;12678;51.336;12.406;2022-12-07T13:42:24;6.60;99.90
24518;DHT22;12678;51.336;12.406;2022-12-07T13:44:50;6.70;99.90
24518;DHT22;12678;51.336;12.406;2022-12-07T13:47:35;6.70;99.90
24518;DHT22;12678;51.336;12.406;2022-12-07T13:50:02;6.60;99.90
24518;DHT22;12678;51.336;12.406;2022-12-07T13:52:29;6.50;99.90
24518;DHT22;12678;51.336;12.406;2022-12-07T13:55:11;6.50;99.90
24518;DHT22;12678;51.336;12.406;2022-12-07T13:57:38;6.40;99.90
24518;DHT22;12678;51.336;12.406;2022-12-07T14:00:06;6.40;99.90
24518;DHT22;12678;51.336;12.406;2022-12-07T14:05:29;6.50;99.90
24518;DHT22;12678;51.336;12.406;2022-12-07T14:13:03;6.50;99.90
24518;DHT22;12678;51.336;12.406;2022-12-07T14:15:43;6.50;99.90
24518;DHT22;12678;51.336;12.406;2022-12-07T14:18:39;6.50;99.90
24518;DHT22;12678;51.336;12.406;2022-12-07T14:21:26;6.40;99.90
24518;DHT22;12678;51.336;12.406;2022-12-07T14:26:39;6.30;99.90
24518;DHT22;12678;51.336;12.406;2022-12-07T14:31:50;6.10;99.90
24518;DHT22;12678;51.336;12.406;2022-12-07T14:34:16;6.20;99.90
24518;DHT22;12678;51.336;12.406;2022-12-07T14:36:42;6.20;99.90
24518;DHT22;12678;51.336;12.406;2022-12-07T14:39:07;6.20;99.90
24518;DHT22;12678;51.336;12.406;2022-12-07T14:41:33;6.10;99.90
24518;DHT22;12678;51.336;12.406;2022-12-07T14:44:19;6.10;99.90
24518;DHT22;12678;51.336;12.406;2022-12-07T14:46:46;6.10;99.90
24518;DHT22;12678;51.336;12.406;2022-12-07T14:49:11;6.00;99.90
24518;DHT22;12678;51.336;12.406;2022-12-07T14:51:39;5.90;99.90
24518;DHT22;12678;51.336;12.406;2022-12-07T14:54:06;5.90;99.90
24518;DHT22;12678;51.336;12.406;2022-12-07T14:56:32;5.80;99.90
24518;DHT22;12678;51.336;12.406;2022-12-07T14:58:58;5.80;99.90
24518;DHT22;12678;51.336;12.406;2022-12-07T15:01:23;5.80;99.90
24518;DHT22;12678;51.336;12.406;2022-12-07T15:03:49;5.80;99.90
24518;DHT22;12678;51.336;12.406;2022-12-07T15:06:17;5.70;99.90
24518;DHT22;12678;51.336;12.406;2022-12-07T15:08:43;5.70;99.90
24518;DHT22;12678;51.336;12.406;2022-12-07T15:11:16;5.70;99.90
24518;DHT22;12678;51.336;12.406;2022-12-07T15:13:42;5.70;99.90
24518;DHT22;12678;51.336;12.406;2022-12-07T15:16:41;5.60;99.90
24518;DHT22;12678;51.336;12.406;2022-12-07T15:19:16;5.60;99.90
24518;DHT22;12678;51.336;12.406;2022-12-07T15:21:42;5.60;99.90
24518;DHT22;12678;51.336;12.406;2022-12-07T15:24:10;5.60;99.90
24518;DHT22;12678;51.336;12.406;2022-12-07T15:26:36;5.60;99.90
24518;DHT22;12678;51.336;12.406;2022-12-07T15:29:02;5.60;99.90
24518;DHT22;12678;51.336;12.406;2022-12-07T15:31:27;5.60;99.90
24518;DHT22;12678;51.336;12.406;2022-12-07T15:33:53;5.60;99.90
24518;DHT22;12678;51.336;12.406;2022-12-07T15:36:24;5.60;99.90
24518;DHT22;12678;51.336;12.406;2022-12-07T15:38:50;5.60;99.90
24518;DHT22;12678;51.336;12.406;2022-12-07T15:41:17;5.60;99.90
24518;DHT22;12678;51.336;12.406;2022-12-07T15:43:43;5.60;99.90
24518;DHT22;12678;51.336;12.406;2022-12-07T15:46:35;5.60;99.90
24518;DHT22;12678;51.336;12.406;2022-12-07T15:49:02;5.60;99.90
24518;DHT22;12678;51.336;12.406;2022-12-07T15:51:28;5.60;99.90
24518;DHT22;12678;51.336;12.406;2022-12-07T15:53:54;5.60;99.90
24518;DHT22;12678;51.336;12.406;2022-12-07T15:56:19;5.70;99.90
24518;DHT22;12678;51.336;12.406;2022-12-07T15:58:45;5.70;99.90
24518;DHT22;12678;51.336;12.406;2022-12-07T16:01:16;5.70;99.90
24518;DHT22;12678;51.336;12.406;2022-12-07T16:03:42;5.70;99.90
24518;DHT22;12678;51.336;12.406;2022-12-07T16:06:09;5.70;99.90
24518;DHT22;12678;51.336;12.406;2022-12-07T16:08:34;5.70;99.90
24518;DHT22;12678;51.336;12.406;2022-12-07T16:11:04;5.70;99.90
24518;DHT22;12678;51.336;12.406;2022-12-07T16:13:30;5.60;99.90
24518;DHT22;12678;51.336;12.406;2022-12-07T16:15:56;5.60;99.90
24518;DHT22;12678;51.336;12.406;2022-12-07T16:18:21;5.70;99.90
24518;DHT22;12678;51.336;12.406;2022-12-07T16:20:50;5.70;99.90
24518;DHT22;12678;51.336;12.406;2022-12-07T16:23:16;5.50;99.90
24518;DHT22;12678;51.336;12.406;2022-12-07T16:25:41;5.40;99.90
24518;DHT22;12678;51.336;12.406;2022-12-07T16:28:07;5.40;99.90
24518;DHT22;12678;51.336;12.406;2022-12-07T16:30:33;5.30;99.90
24518;DHT22;12678;51.336;12.406;2022-12-07T16:32:59;5.20;99.90
24518;DHT22;12678;51.336;12.406;2022-12-07T16:35:24;5.10;99.90
24518;DHT22;12678;51.336;12.406;2022-12-07T16:37:50;4.90;99.90
24518;DHT22;12678;51.336;12.406;2022-12-07T16:40:15;4.80;99.90
24518;DHT22;12678;51.336;12.406;2022-12-07T16:42:41;4.70;99.90
24518;DHT22;12678;51.336;12.406;2022-12-07T16:45:07;4.70;99.90
24518;DHT22;12678;51.336;12.406;2022-12-07T16:47:33;4.60;99.90
24518;DHT22;12678;51.336;12.406;2022-12-07T16:49:58;4.60;99.90
24518;DHT22;12678;51.336;12.406;2022-12-07T16:52:24;4.50;99.90
24518;DHT22;12678;51.336;12.406;2022-12-07T16:54:50;4.50;99.90
24518;DHT22;12678;51.336;12.406;2022-12-07T16:57:16;4.50;99.90
24518;DHT22;12678;51.336;12.406;2022-12-07T16:59:42;4.50;99.90
24518;DHT22;12678;51.336;12.406;2022-12-07T17:02:11;4.50;99.90
24518;DHT22;12678;51.336;12.406;2022-12-07T17:04:37;4.60;99.90
24518;DHT22;12678;51.336;12.406;2022-12-07T17:07:05;4.50;99.90
24518;DHT22;12678;51.336;12.406;2022-12-07T17:09:31;4.60;99.90
24518;DHT22;12678;51.336;12.406;2022-12-07T17:11:56;4.60;99.90
24518;DHT22;12678;51.336;12.406;2022-12-07T17:14:22;4.60;99.90
24518;DHT22;12678;51.336;12.406;2022-12-07T17:17:06;4.60;99.90
24518;DHT22;12678;51.336;12.406;2022-12-07T17:19:32;4.60;99.90
24518;DHT22;12678;51.336;12.406;2022-12-07T17:21:57;4.70;99.90
24518;DHT22;12678;51.336;12.406;2022-12-07T17:24:23;4.70;99.90
24518;DHT22;12678;51.336;12.406;2022-12-07T17:26:48;4.70;99.90
24518;DHT22;12678;51.336;12.406;2022-12-07T17:29:16;4.70;99.90
24518;DHT22;12678;51.336;12.406;2022-12-07T17:31:43;4.70;99.90
24518;DHT22;12678;51.336;12.406;2022-12-07T17:34:13;4.70;99.90
24518;DHT22;12678;51.336;12.406;2022-12-07T17:36:39;4.70;99.90
24518;DHT22;12678;51.336;12.406;2022-12-07T17:39:09;4.70;99.90
24518;DHT22;12678;51.336;12.406;2022-12-07T17:41:38;4.70;99.90
24518;DHT22;12678;51.336;12.406;2022-12-07T17:44:22;4.70;99.90
24518;DHT22;12678;51.336;12.406;2022-12-07T17:46:51;4.70;99.90
24518;DHT22;12678;51.336;12.406;2022-12-07T17:49:22;4.70;99.90
24518;DHT22;12678;51.336;12.406;2022-12-07T17:51:48;4.70;99.90
24518;DHT22;12678;51.336;12.406;2022-12-07T17:54:32;4.80;99.90
24518;DHT22;12678;51.336;12.406;2022-12-07T17:56:58;4.80;99.90
24518;DHT22;12678;51.336;12.406;2022-12-07T17:59:24;4.90;99.90
24518;DHT22;12678;51.336;12.406;2022-12-07T18:01:49;4.80;99.90
24518;DHT22;12678;51.336;12.406;2022-12-07T18:04:15;4.80;99.90
24518;DHT22;12678;51.336;12.406;2022-12-07T18:06:41;4.80;99.90
24518;DHT22;12678;51.336;12.406;2022-12-07T18:09:07;4.80;99.90
24518;DHT22;12678;51.336;12.406;2022-12-07T18:11:34;4.80;99.90